createdAt,value
2018-05-31T00:01:57.270Z,"    0"
2018-05-31T00:06:54.276Z,"    0"
2018-05-31T00:11:50.329Z,"    0"
2018-05-31T00:16:47.898Z,"    0"
2018-05-31T00:21:43.544Z,"    0"
2018-05-31T00:26:39.596Z,"    0"
2018-05-31T00:31:35.622Z,"    0"
2018-05-31T00:36:31.733Z,"    0"
2018-05-31T00:41:27.806Z,"    0"
2018-05-31T00:46:23.815Z,"    0"
2018-05-31T00:51:19.844Z,"    0"
2018-05-31T00:56:16.783Z,"    0"
2018-05-31T01:01:13.348Z,"    0"
2018-05-31T01:06:09.612Z,"    0"
2018-05-31T01:11:05.877Z,"    0"
2018-05-31T01:16:02.771Z,"    0"
2018-05-31T01:20:58.437Z,"    0"
2018-05-31T01:25:54.634Z,"    0"
2018-05-31T01:30:51.510Z,"    0"
2018-05-31T01:35:47.376Z,"    0"
2018-05-31T01:40:43.414Z,"    0"
2018-05-31T01:45:40.498Z,"    0"
2018-05-31T01:50:36.081Z,"    0"
2018-05-31T01:55:32.973Z,"    0"
2018-05-31T02:00:28.667Z,"    0"
2018-05-31T02:05:24.613Z,"    0"
2018-05-31T02:10:20.321Z,"    0"
2018-05-31T02:15:17.130Z,"    0"
2018-05-31T02:20:12.707Z,"    0"
2018-05-31T02:25:09.903Z,"    0"
2018-05-31T02:30:05.374Z,"    0"
2018-05-31T02:35:01.315Z,"    0"
2018-05-31T02:39:57.218Z,"    0"
2018-05-31T02:44:53.326Z,"    4"
2018-05-31T02:49:50.338Z,"    8"
2018-05-31T02:54:45.940Z,"   16"
2018-05-31T02:59:41.751Z,"   32"
2018-05-31T03:04:38.108Z,"   56"
2018-05-31T03:09:35.156Z,"   88"
2018-05-31T03:14:30.845Z,"  132"
2018-05-31T03:19:27.157Z,"  192"
2018-05-31T03:24:23.399Z,"  272"
2018-05-31T03:29:19.797Z,"  384"
2018-05-31T03:34:15.794Z,"  520"
2018-05-31T03:39:11.519Z,"  684"
2018-05-31T03:44:07.600Z,"  876"
2018-05-31T03:49:04.997Z," 1064"
2018-05-31T03:54:01.357Z," 1228"
2018-05-31T03:58:58.166Z," 1344"
2018-05-31T04:03:54.379Z," 1424"
2018-05-31T04:08:50.666Z," 1584"
2018-05-31T04:13:46.954Z," 1904"
2018-05-31T04:18:43.806Z," 2304"
2018-05-31T04:23:40.881Z," 2780"
2018-05-31T04:28:37.537Z," 3832"
2018-05-31T04:33:34.367Z," 4644"
2018-05-31T04:38:31.255Z," 5252"
2018-05-31T04:43:28.267Z," 5876"
2018-05-31T04:48:24.868Z," 6228"
2018-05-31T04:53:21.027Z," 5632"
2018-05-31T04:58:17.036Z," 6064"
2018-05-31T05:03:13.592Z," 6300"
2018-05-31T05:08:10.135Z," 8796"
2018-05-31T05:13:06.635Z,10132
2018-05-31T05:18:03.866Z,11792
2018-05-31T05:23:00.557Z,11528
2018-05-31T05:27:56.848Z," 9304"
2018-05-31T05:32:53.129Z,15456
2018-05-31T05:37:51.029Z,14676
2018-05-31T05:42:47.402Z,11812
2018-05-31T05:47:43.603Z,14520
2018-05-31T05:52:40.114Z,10672
2018-05-31T05:57:35.755Z," 8744"
2018-05-31T06:02:32.457Z," 8752"
2018-05-31T06:07:28.920Z," 8848"
2018-05-31T06:12:24.497Z," 8340"
2018-05-31T06:17:21.517Z," 8480"
2018-05-31T06:22:17.217Z," 8100"
2018-05-31T06:27:13.213Z," 9064"
2018-05-31T06:32:09.323Z," 9620"
2018-05-31T06:37:05.403Z," 9168"
2018-05-31T06:42:01.743Z," 9064"
2018-05-31T06:46:58.833Z," 9492"
2018-05-31T06:51:55.816Z," 9320"
2018-05-31T06:56:52.467Z," 9776"
2018-05-31T07:01:49.461Z," 9696"
2018-05-31T07:06:45.340Z," 9588"
2018-05-31T07:11:42.542Z," 9324"
2018-05-31T07:16:38.090Z," 9536"
2018-05-31T07:21:35.489Z," 9628"
2018-05-31T07:26:32.237Z,10380
2018-05-31T07:31:28.310Z,10696
2018-05-31T07:36:24.457Z,10944
2018-05-31T07:41:20.668Z,11120
2018-05-31T07:46:17.374Z,25920
2018-05-31T07:51:16.207Z,37088
2018-05-31T07:56:15.699Z,47456
2018-05-31T08:01:13.607Z,35072
2018-05-31T08:06:09.621Z,19328
2018-05-31T08:11:05.432Z,37888
2018-05-31T08:16:02.859Z,49792
2018-05-31T08:21:00.170Z,39136
2018-05-31T08:25:57.541Z,48416
2018-05-31T08:30:55.966Z,43104
2018-05-31T08:35:53.512Z,54720
2018-05-31T08:40:50.419Z,44800
2018-05-31T08:45:47.404Z,46304
2018-05-31T08:50:43.691Z,49536
2018-05-31T08:55:40.074Z,55392
2018-05-31T09:00:36.298Z,58272
2018-05-31T09:05:32.785Z,66272
2018-05-31T09:10:29.683Z,57888
2018-05-31T09:15:26.442Z,58848
2018-05-31T09:20:22.816Z,55808
2018-05-31T09:25:18.950Z,64800
2018-05-31T09:30:14.449Z,33952
2018-05-31T09:35:11.110Z,75456
2018-05-31T09:40:09.046Z,79232
2018-05-31T09:45:05.130Z,71424
2018-05-31T09:50:01.090Z,10368
2018-05-31T09:54:54.886Z,67456
2018-05-31T09:59:51.968Z,66912
2018-05-31T10:04:46.933Z,67296
2018-05-31T10:09:43.953Z,56416
2018-05-31T10:14:41.516Z,68864
2018-05-31T10:19:39.282Z,70624
2018-05-31T10:24:37.453Z,55008
2018-05-31T10:29:35.504Z,56672
2018-05-31T10:34:32.550Z,62656
2018-05-31T10:39:28.267Z,57824
2018-05-31T10:44:24.047Z,64224
2018-05-31T10:49:20.434Z,12616
2018-05-31T10:54:15.847Z,10568
2018-05-31T10:59:10.566Z,30368
2018-05-31T11:04:06.648Z,10256
2018-05-31T11:09:01.267Z,11936
2018-05-31T11:13:58.147Z,79456
2018-05-31T11:18:57.953Z,86816
2018-05-31T11:23:57.301Z,18336
2018-05-31T11:28:54.672Z,19552
2018-05-31T11:33:46.754Z,10000
2018-05-31T11:38:40.485Z,10308
2018-05-31T11:43:34.680Z," 7780"
2018-05-31T11:48:29.535Z," 6712"
2018-05-31T11:53:25.885Z,12196
2018-05-31T11:58:23.614Z,10820
2018-05-31T12:03:19.964Z," 8388"
2018-05-31T12:08:15.347Z," 8896"
2018-05-31T12:13:11.147Z,11060
2018-05-31T12:18:07.243Z," 6924"
2018-05-31T12:23:04.229Z," 7936"
2018-05-31T12:28:02.852Z,53664
2018-05-31T12:32:59.752Z," 7508"
2018-05-31T12:37:54.834Z," 8212"
2018-05-31T12:42:51.490Z,44096
2018-05-31T12:47:50.069Z,50880
2018-05-31T12:52:47.886Z,42432
2018-05-31T12:57:45.941Z,33024
2018-05-31T13:02:41.981Z,37920
2018-05-31T13:07:39.635Z,48128
2018-05-31T13:12:35.685Z,11496
2018-05-31T13:17:31.986Z,32032
2018-05-31T13:22:28.618Z,39424
2018-05-31T13:27:25.888Z,20512
2018-05-31T13:32:26.038Z," 9036"
2018-05-31T13:37:20.690Z," 9192"
2018-05-31T13:42:16.431Z,19840
2018-05-31T13:47:12.805Z,22976
2018-05-31T13:52:09.201Z,23712
2018-05-31T13:57:05.384Z,19104
2018-05-31T14:02:01.187Z,12340
2018-05-31T14:06:57.526Z,11440
2018-05-31T14:11:53.589Z,11792
2018-05-31T14:16:49.750Z,11476
2018-05-31T14:21:46.683Z," 8900"
2018-05-31T14:26:42.284Z," 7572"
2018-05-31T14:31:39.088Z," 6064"
2018-05-31T14:36:34.409Z," 6180"
2018-05-31T14:41:30.464Z," 6120"
2018-05-31T14:46:26.526Z," 6488"
2018-05-31T14:51:23.118Z," 2224"
2018-05-31T14:56:18.126Z," 2280"
2018-05-31T15:01:13.532Z," 1556"
2018-05-31T15:06:09.234Z,"  820"
2018-05-31T15:11:04.870Z," 1292"
2018-05-31T15:16:00.124Z," 1564"
2018-05-31T15:20:55.777Z," 1828"
2018-05-31T15:25:51.297Z," 2320"
2018-05-31T15:30:47.233Z," 2520"
2018-05-31T15:35:43.283Z," 2420"
2018-05-31T15:40:39.137Z," 2300"
2018-05-31T15:45:35.718Z," 2412"
2018-05-31T15:50:31.993Z," 2584"
2018-05-31T15:55:27.946Z," 3096"
2018-05-31T16:00:24.038Z," 3532"
2018-05-31T16:05:19.989Z," 4200"
2018-05-31T16:10:16.129Z," 5148"
2018-05-31T16:15:13.587Z," 5864"
2018-05-31T16:20:09.300Z," 6120"
2018-05-31T16:25:06.326Z," 6448"
2018-05-31T16:30:02.224Z," 6316"
2018-05-31T16:34:59.215Z," 5796"
2018-05-31T16:39:55.060Z," 5164"
2018-05-31T16:44:51.093Z," 4380"
2018-05-31T16:49:47.416Z," 3944"
2018-05-31T16:54:43.458Z," 3600"
2018-05-31T16:59:40.267Z," 3380"
2018-05-31T17:04:36.686Z," 3228"
2018-05-31T17:09:32.504Z," 3088"
2018-05-31T17:14:28.292Z," 2964"
2018-05-31T17:19:24.257Z," 2764"
2018-05-31T17:24:20.037Z," 2772"
2018-05-31T17:29:15.831Z," 2740"
2018-05-31T17:34:12.056Z," 2712"
2018-05-31T17:39:09.166Z," 2652"
2018-05-31T17:44:04.842Z," 2564"
2018-05-31T17:49:00.667Z," 2472"
2018-05-31T17:53:56.510Z," 2408"
2018-05-31T17:58:52.177Z," 2268"
2018-05-31T18:03:48.510Z," 2036"
2018-05-31T18:08:44.202Z," 1744"
2018-05-31T18:13:39.960Z," 1456"
2018-05-31T18:18:36.298Z," 1252"
2018-05-31T18:23:33.131Z," 1108"
2018-05-31T18:28:28.527Z,"  976"
2018-05-31T18:33:24.431Z,"  884"
2018-05-31T18:38:20.240Z,"  812"
2018-05-31T18:43:17.348Z,"  744"
2018-05-31T18:48:12.943Z,"  640"
2018-05-31T18:53:08.909Z,"  552"
2018-05-31T18:58:05.472Z,"  468"
2018-05-31T19:03:01.599Z,"  404"
2018-05-31T19:07:58.767Z,"  352"
2018-05-31T19:12:54.530Z,"  296"
2018-05-31T19:17:50.482Z,"  248"
2018-05-31T19:22:46.510Z,"  200"
2018-05-31T19:27:42.530Z,"  156"
2018-05-31T19:32:38.377Z,"  120"
2018-05-31T19:37:34.287Z,"   88"
2018-05-31T19:42:30.220Z,"   68"
2018-05-31T19:47:26.296Z,"   44"
2018-05-31T19:52:22.728Z,"   24"
2018-05-31T19:57:18.672Z,"   16"
2018-05-31T20:02:14.561Z,"   12"
2018-05-31T20:07:10.469Z,"    8"
2018-05-31T20:12:06.828Z,"    4"
2018-05-31T20:17:02.867Z,"    0"
2018-05-31T20:21:58.931Z,"    0"
2018-05-31T20:26:54.502Z,"    0"
2018-05-31T20:31:50.371Z,"    0"
2018-05-31T20:36:46.251Z,"    0"
2018-05-31T20:41:42.130Z,"    0"
2018-05-31T20:46:38.119Z,"    0"
2018-05-31T20:51:34.063Z,"    0"
2018-05-31T20:56:29.953Z,"    0"
2018-05-31T21:01:25.946Z,"    0"
2018-05-31T21:06:21.853Z,"    0"
2018-05-31T21:11:17.650Z,"    0"
2018-05-31T21:16:13.671Z,"    0"
2018-05-31T21:21:09.505Z,"    0"
2018-05-31T21:26:05.295Z,"    0"
2018-05-31T21:31:01.097Z,"    0"
2018-05-31T21:35:56.914Z,"    0"
2018-05-31T21:40:52.823Z,"    0"
2018-05-31T21:45:49.689Z,"    0"
2018-05-31T21:50:46.207Z,"    0"
2018-05-31T21:55:41.799Z,"    0"
2018-05-31T22:00:38.138Z,"    0"
2018-05-31T22:05:34.015Z,"    0"
2018-05-31T22:10:29.963Z,"    0"
2018-05-31T22:15:26.003Z,"    0"
2018-05-31T22:20:22.031Z,"    0"
2018-05-31T22:25:17.963Z,"    0"
2018-05-31T22:30:13.609Z,"    0"
2018-05-31T22:35:10.407Z,"    0"
2018-05-31T22:40:06.928Z,"    0"
2018-05-31T22:45:02.779Z,"    0"
2018-05-31T22:49:58.772Z,"    0"
2018-05-31T22:54:55.013Z,"    0"
2018-05-31T22:59:50.835Z,"    0"
2018-05-31T23:04:46.427Z,"    0"
2018-05-31T23:09:42.301Z,"    0"
2018-05-31T23:14:38.161Z,"    0"
2018-05-31T23:19:33.892Z,"    0"
2018-05-31T23:24:29.748Z,"    0"
2018-05-31T23:29:26.611Z,"    0"
2018-05-31T23:34:22.009Z,"    0"
2018-05-31T23:39:17.812Z,"    0"
2018-05-31T23:44:13.731Z,"    0"
2018-05-31T23:49:09.569Z,"    0"
2018-05-31T23:54:05.372Z,"    0"
2018-05-31T23:59:02.726Z,"    0"
